Emden — 3ERP5 — position and weather

sailwx.info

Track history (hours):
 
Tides and Currents Weather Stations Pressure Air Temp Water Temp Dewpoint Dewpoint Depression Visibility Wind Speed Wind Dir Waves Ship Positions

Emden

Last reported at 2017-Jan-24 09:30 UTC. Time now 2017-Feb-26 07:38 UTC.
Position N 37°34' E 024°07'.
Warning: this ship's position is 32 days out of date.

Length 177 m; draft 7.2 m.

Type: Ship. MMSI: 355051000.

Date/timePositionNaut miles runAvg speedWind from/ knotsBaromVisibWave heightAir tempDewpointWater temp
2017-Jan-24 09:30N 37°34' E 024°07'446 9.9
2017-Jan-22 12:29N 36°28' E 014°54'1111.8
2017-Jan-22 11:33N 36°28' E 014°40'1111.5
2017-Jan-22 10:33N 36°29' E 014°26'1111.2
2017-Jan-22 09:34N 36°32' E 014°12'1111.3
2017-Jan-22 08:34N 36°35' E 013°59'10 9.6
2017-Jan-22 07:33N 36°37' E 013°47'11 8.2
2017-Jan-22 06:13N 36°41' E 013°34'5 7.2
2017-Jan-22 05:33N 36°43' E 013°29'47110.4
2017-Jan-20 08:15N 37°03' E 003°41'1215.2
2017-Jan-20 07:30N 37°02' E 003°26'41813.9
2017-Jan-19 01:32N 36°00' W 005°07'1414.1
2017-Jan-19 00:33N 35°58' W 005°24'1714.8
2017-Jan-18 23:23N 35°55' W 005°45'1215.2
2017-Jan-18 22:33N 35°54' W 006°01'21412.5
2017-Jan-18 05:29N 37°45' W 009°50'2215.2
2017-Jan-18 04:03N 38°06' W 009°56'815.3
2017-Jan-18 03:33N 38°13' W 009°58'1515.3
2017-Jan-18 02:33N 38°28' W 010°02'1615.5
2017-Jan-18 01:33N 38°43' W 010°06'1616.2
2017-Jan-18 00:33N 38°60' W 010°07'1616.2
2017-Jan-17 23:33N 39°16' W 010°07'1515.3
2017-Jan-17 22:33N 39°31' W 010°07'1515.3
2017-Jan-17 21:33N 39°46' W 010°06'60014.5
2017-Jan-16 04:07N 49°09' W 005°11'13613.9
2017-Jan-15 18:20N 50°10' W 002°03'1215.6
2017-Jan-15 17:33N 50°14' W 001°45'1716.8
2017-Jan-15 16:33N 50°18' W 001°20'2117.0
2017-Jan-15 15:20N 50°24' W 000°48'1215.5
2017-Jan-15 14:33N 50°27' W 000°30'1414.2
2017-Jan-15 13:32N 50°31' W 000°08'1313.2
2017-Jan-15 12:33N 50°34' E 000°12'1212.5
2017-Jan-15 11:33N 50°37' E 000°31'1212.5
2017-Jan-15 10:33N 50°44' E 000°48'1514.1
2017-Jan-15 09:32N 50°52' E 001°06'1616.2
2017-Jan-15 08:33N 51°03' E 001°25'1616.4
2017-Jan-15 07:34N 51°13' E 001°45'1514.7
2017-Jan-15 06:34N 51°25' E 001°59'1413.5
2017-Jan-15 05:33N 51°36' E 002°12'11513.9
2017-Jan-14 21:18N 53°03' E 004°14'1114.1
2017-Jan-14 20:33N 53°11' E 004°25'7810.9
2017-Jan-14 13:20N 53°37' E 006°30'1113.7
2017-Jan-14 12:33N 53°31' E 006°45'1313.4
2017-Jan-14 11:33N 53°21' E 006°59'7 6.6
2017-Jan-14 10:31N 53°20' E 007°11'0 0.0
2017-Jan-14 09:31N 53°20' E 007°11'  
Track history (hours):
 
Tides and Currents Weather Stations Pressure Air Temp Water Temp Dewpoint Dewpoint Depression Visibility Wind Speed Wind Dir Waves Ship Positions

Emden

Last reported at 2017-Jan-24 09:30 UTC. Time now 2017-Feb-26 07:38 UTC.
Position N 37°34' E 024°07'.
Warning: this ship's position is 32 days out of date.

Length 177 m; draft 7.2 m.

Type: Ship. MMSI: 355051000.

Date/timePositionNaut miles runAvg speedWind from/ knotsBaromVisibWave heightAir tempDewpointWater temp
2017-Jan-24 09:30N 37°34' E 024°07'446 9.9
2017-Jan-22 12:29N 36°28' E 014°54'1111.8
2017-Jan-22 11:33N 36°28' E 014°40'1111.5
2017-Jan-22 10:33N 36°29' E 014°26'1111.2
2017-Jan-22 09:34N 36°32' E 014°12'1111.3
2017-Jan-22 08:34N 36°35' E 013°59'10 9.6
2017-Jan-22 07:33N 36°37' E 013°47'11 8.2
2017-Jan-22 06:13N 36°41' E 013°34'5 7.2
2017-Jan-22 05:33N 36°43' E 013°29'47110.4
2017-Jan-20 08:15N 37°03' E 003°41'1215.2
2017-Jan-20 07:30N 37°02' E 003°26'41813.9
2017-Jan-19 01:32N 36°00' W 005°07'1414.1
2017-Jan-19 00:33N 35°58' W 005°24'1714.8
2017-Jan-18 23:23N 35°55' W 005°45'1215.2
2017-Jan-18 22:33N 35°54' W 006°01'21412.5
2017-Jan-18 05:29N 37°45' W 009°50'2215.2
2017-Jan-18 04:03N 38°06' W 009°56'815.3
2017-Jan-18 03:33N 38°13' W 009°58'1515.3
2017-Jan-18 02:33N 38°28' W 010°02'1615.5
2017-Jan-18 01:33N 38°43' W 010°06'1616.2
2017-Jan-18 00:33N 38°60' W 010°07'1616.2
2017-Jan-17 23:33N 39°16' W 010°07'1515.3
2017-Jan-17 22:33N 39°31' W 010°07'1515.3
2017-Jan-17 21:33N 39°46' W 010°06'60014.5
2017-Jan-16 04:07N 49°09' W 005°11'13613.9
2017-Jan-15 18:20N 50°10' W 002°03'1215.6
2017-Jan-15 17:33N 50°14' W 001°45'1716.8
2017-Jan-15 16:33N 50°18' W 001°20'2117.0
2017-Jan-15 15:20N 50°24' W 000°48'1215.5
2017-Jan-15 14:33N 50°27' W 000°30'1414.2
2017-Jan-15 13:32N 50°31' W 000°08'1313.2
2017-Jan-15 12:33N 50°34' E 000°12'1212.5
2017-Jan-15 11:33N 50°37' E 000°31'1212.5
2017-Jan-15 10:33N 50°44' E 000°48'1514.1
2017-Jan-15 09:32N 50°52' E 001°06'1616.2
2017-Jan-15 08:33N 51°03' E 001°25'1616.4
2017-Jan-15 07:34N 51°13' E 001°45'1514.7
2017-Jan-15 06:34N 51°25' E 001°59'1413.5
2017-Jan-15 05:33N 51°36' E 002°12'11513.9
2017-Jan-14 21:18N 53°03' E 004°14'1114.1
2017-Jan-14 20:33N 53°11' E 004°25'7810.9
2017-Jan-14 13:20N 53°37' E 006°30'1113.7
2017-Jan-14 12:33N 53°31' E 006°45'1313.4
2017-Jan-14 11:33N 53°21' E 006°59'7 6.6
2017-Jan-14 10:31N 53°20' E 007°11'0 0.0
2017-Jan-14 09:31N 53°20' E 007°11'  

Dump ship's entire track history